createdAt,value
2019-02-15T00:00:30.866Z,60.59
2019-02-15T00:01:37.770Z,60.56
2019-02-15T00:02:41.612Z,60.54
2019-02-15T00:03:45.417Z,60.56
2019-02-15T00:04:49.483Z,60.56
2019-02-15T00:05:53.559Z,60.60
2019-02-15T00:06:57.366Z,60.58
2019-02-15T00:08:01.635Z,60.55
2019-02-15T00:09:06.689Z,60.53
2019-02-15T00:10:10.504Z,60.49
2019-02-15T00:11:14.336Z,60.46
2019-02-15T00:12:18.138Z,60.45
2019-02-15T00:13:22.045Z,60.43
2019-02-15T00:14:26.099Z,60.43
2019-02-15T00:15:30.315Z,60.43
2019-02-15T00:16:34.209Z,60.41
2019-02-15T00:18:09.164Z,60.41
2019-02-15T00:19:31.971Z,60.43
2019-02-15T00:20:39.097Z,60.42
2019-02-15T00:21:47.891Z,60.39
2019-02-15T00:22:51.707Z,60.48
2019-02-15T00:23:55.520Z,60.51
2019-02-15T00:24:59.429Z,60.54
2019-02-15T00:26:04.016Z,60.58
2019-02-15T00:27:07.938Z,60.59
2019-02-15T00:28:11.758Z,60.54
2019-02-15T00:29:15.575Z,60.54
2019-02-15T00:30:19.718Z,60.57
2019-02-15T00:31:23.820Z,60.59
2019-02-15T00:32:27.629Z,60.59
2019-02-15T00:33:31.442Z,60.57
2019-02-15T00:34:35.514Z,60.56
2019-02-15T00:35:39.419Z,60.55
2019-02-15T00:36:43.488Z,60.57
2019-02-15T00:37:47.297Z,60.45
2019-02-15T00:38:51.183Z,60.51
2019-02-15T00:39:54.991Z,60.46
2019-02-15T00:40:59.110Z,60.49
2019-02-15T00:42:03.215Z,60.52
2019-02-15T00:43:07.480Z,60.64
2019-02-15T00:44:11.234Z,60.73
2019-02-15T00:45:17.332Z,60.85
2019-02-15T00:46:43.200Z,60.76
2019-02-15T00:47:52.359Z,60.84
2019-02-15T00:48:57.099Z,60.91
2019-02-15T00:50:14.563Z,60.95
2019-02-15T00:51:38.318Z,60.97
2019-02-15T00:52:54.097Z,60.97
2019-02-15T00:54:10.982Z,61.10
2019-02-15T00:55:33.797Z,61.21
2019-02-15T00:56:59.917Z,61.30
2019-02-15T00:58:23.297Z,61.30
2019-02-15T00:59:38.218Z,61.30
2019-02-15T01:00:50.105Z,61.33
2019-02-15T01:02:13.186Z,61.32
2019-02-15T01:03:29.236Z,61.27
2019-02-15T01:05:04.397Z,61.38
2019-02-15T01:06:27.209Z,61.47
2019-02-15T01:07:39.277Z,61.61
2019-02-15T01:09:04.864Z,61.74
2019-02-15T01:10:15.569Z,61.85
2019-02-15T01:11:23.450Z,61.86
2019-02-15T01:12:36.382Z,61.91
2019-02-15T01:13:40.458Z,61.94
2019-02-15T01:14:44.923Z,61.94
2019-02-15T01:15:49.079Z,61.93
2019-02-15T01:16:52.907Z,61.86
2019-02-15T01:17:56.889Z,61.91
2019-02-15T01:19:00.947Z,61.98
2019-02-15T01:20:04.857Z,61.97
2019-02-15T01:21:09.006Z,61.97
2019-02-15T01:22:12.903Z,62.00
2019-02-15T01:23:16.781Z,62.03
2019-02-15T01:24:20.600Z,62.06
2019-02-15T01:25:26.157Z,62.06
2019-02-15T01:26:41.036Z,62.05
2019-02-15T01:27:54.790Z,62.01
2019-02-15T01:29:13.150Z,61.98
2019-02-15T01:30:41.844Z,61.91
2019-02-15T01:32:04.676Z,61.88
2019-02-15T01:33:18.878Z,61.91
2019-02-15T01:34:48.381Z,61.95
2019-02-15T01:36:23.594Z,61.95
2019-02-15T01:37:49.324Z,61.92
2019-02-15T01:39:18.578Z,61.96
2019-02-15T01:40:53.610Z,62.14
2019-02-15T01:42:18.911Z,62.30
2019-02-15T01:43:30.693Z,62.39
2019-02-15T01:44:47.800Z,62.48
2019-02-15T01:45:57.183Z,62.51
2019-02-15T01:47:08.463Z,62.54
2019-02-15T01:48:12.776Z,62.54
2019-02-15T01:49:16.583Z,62.48
2019-02-15T01:50:20.461Z,62.47
2019-02-15T01:51:24.345Z,62.45
2019-02-15T01:52:28.481Z,62.39
2019-02-15T01:53:32.296Z,62.35
2019-02-15T01:54:36.175Z,62.32
2019-02-15T01:55:39.987Z,62.26
2019-02-15T01:56:44.711Z,62.20
2019-02-15T01:57:48.526Z,62.15
2019-02-15T01:58:52.354Z,62.12
2019-02-15T01:59:56.470Z,62.12
2019-02-15T02:01:00.541Z,62.11
2019-02-15T02:02:04.636Z,62.10
2019-02-15T02:03:08.452Z,62.09
2019-02-15T02:04:12.621Z,62.09
2019-02-15T02:05:16.431Z,62.07
2019-02-15T02:06:21.102Z,62.04
2019-02-15T02:07:25.362Z,62.05
2019-02-15T02:08:29.518Z,62.05
2019-02-15T02:09:34.997Z,62.03
2019-02-15T02:10:38.806Z,62.01
2019-02-15T02:11:42.613Z,62.00
2019-02-15T02:12:46.430Z,62.00
2019-02-15T02:13:50.396Z,61.99
2019-02-15T02:14:54.467Z,61.95
2019-02-15T02:15:58.424Z,61.96
2019-02-15T02:17:02.570Z,61.92
2019-02-15T02:18:06.450Z,61.92
2019-02-15T02:19:10.523Z,61.88
2019-02-15T02:20:14.781Z,61.88
2019-02-15T02:21:18.586Z,61.85
2019-02-15T02:22:22.400Z,61.88
2019-02-15T02:23:26.263Z,61.89
2019-02-15T02:24:30.798Z,61.91
2019-02-15T02:25:34.928Z,61.89
2019-02-15T02:26:38.740Z,61.90
2019-02-15T02:27:42.545Z,61.88
2019-02-15T02:28:46.991Z,61.93
2019-02-15T02:29:51.203Z,61.90
2019-02-15T02:30:55.024Z,61.92
2019-02-15T02:31:59.087Z,61.92
2019-02-15T02:33:02.981Z,61.91
2019-02-15T02:34:06.861Z,61.91
2019-02-15T02:35:11.109Z,61.92
2019-02-15T02:36:15.307Z,61.90
2019-02-15T02:37:19.203Z,61.88
2019-02-15T02:38:23.409Z,61.85
2019-02-15T02:39:27.510Z,61.87
2019-02-15T02:40:31.395Z,61.81
2019-02-15T02:41:35.522Z,61.86
2019-02-15T02:42:39.748Z,61.89
2019-02-15T02:43:43.886Z,61.98
2019-02-15T02:44:47.793Z,62.00
2019-02-15T02:45:51.885Z,62.07
2019-02-15T02:46:56.182Z,62.08
2019-02-15T02:48:00.145Z,62.08
2019-02-15T02:49:04.055Z,62.06
2019-02-15T02:50:08.349Z,62.08
2019-02-15T02:51:12.160Z,62.11
2019-02-15T02:52:15.976Z,62.13
2019-02-15T02:53:19.888Z,62.09
2019-02-15T02:54:24.253Z,62.10
2019-02-15T02:55:28.475Z,62.13
2019-02-15T02:56:32.376Z,62.10
2019-02-15T02:57:36.177Z,62.11
2019-02-15T02:58:40.037Z,62.12
2019-02-15T02:59:43.869Z,62.10
2019-02-15T03:00:47.945Z,62.10
2019-02-15T03:01:51.752Z,62.08
2019-02-15T03:02:55.565Z,62.10
2019-02-15T03:03:59.636Z,62.14
2019-02-15T03:05:03.845Z,62.14
2019-02-15T03:06:08.101Z,62.17
2019-02-15T03:07:12.072Z,62.17
2019-02-15T03:08:15.983Z,62.20
2019-02-15T03:09:20.113Z,62.19
2019-02-15T03:10:23.941Z,62.18
2019-02-15T03:11:27.750Z,62.18
2019-02-15T03:12:31.569Z,62.16
2019-02-15T03:13:35.464Z,62.14
2019-02-15T03:14:39.546Z,62.12
2019-02-15T03:15:43.750Z,62.11
2019-02-15T03:16:47.555Z,62.10
2019-02-15T03:17:51.443Z,62.01
2019-02-15T03:18:55.332Z,62.04
2019-02-15T03:19:59.164Z,62.08
2019-02-15T03:21:03.301Z,62.08
2019-02-15T03:22:07.566Z,62.13
2019-02-15T03:23:12.230Z,62.15
2019-02-15T03:24:16.373Z,62.14
2019-02-15T03:25:20.264Z,62.13
2019-02-15T03:26:24.086Z,62.13
2019-02-15T03:27:27.892Z,62.17
2019-02-15T03:28:31.704Z,62.17
2019-02-15T03:29:35.511Z,62.15
2019-02-15T03:30:39.409Z,62.15
2019-02-15T03:31:43.235Z,62.15
2019-02-15T03:32:47.050Z,62.14
2019-02-15T03:33:50.859Z,62.15
2019-02-15T03:34:54.954Z,62.13
2019-02-15T03:36:01.245Z,62.08
2019-02-15T03:37:26.921Z,62.10
2019-02-15T03:38:52.822Z,62.14
2019-02-15T03:40:01.706Z,62.17
2019-02-15T03:41:08.397Z,62.10
2019-02-15T03:42:14.174Z,62.18
2019-02-15T03:43:17.983Z,62.25
2019-02-15T03:44:22.894Z,62.42
2019-02-15T03:45:27.382Z,62.43
2019-02-15T03:46:31.318Z,62.39
2019-02-15T03:47:35.303Z,62.48
2019-02-15T03:48:39.363Z,62.56
2019-02-15T03:49:43.793Z,62.55
2019-02-15T03:50:47.898Z,62.56
2019-02-15T03:51:51.711Z,62.59
2019-02-15T03:52:55.768Z,62.67
2019-02-15T03:53:59.579Z,62.76
2019-02-15T03:55:03.751Z,62.92
2019-02-15T03:56:07.821Z,63.19
2019-02-15T03:57:11.947Z,63.44
2019-02-15T03:58:15.826Z,63.53
2019-02-15T03:59:20.115Z,63.62
2019-02-15T04:00:24.002Z,63.67
2019-02-15T04:01:27.896Z,63.74
2019-02-15T04:02:31.724Z,63.85
2019-02-15T04:03:35.842Z,64.01
2019-02-15T04:04:39.914Z,64.04
2019-02-15T04:05:43.800Z,64.07
2019-02-15T04:06:47.887Z,64.13
2019-02-15T04:07:51.935Z,64.18
2019-02-15T04:08:55.991Z,64.17
2019-02-15T04:09:59.871Z,64.26
2019-02-15T04:11:03.772Z,64.24
2019-02-15T04:12:07.652Z,64.33
2019-02-15T04:13:11.783Z,64.27
2019-02-15T04:14:15.593Z,64.27
2019-02-15T04:15:19.474Z,64.29
2019-02-15T04:16:23.368Z,64.33
2019-02-15T04:17:27.182Z,64.38
2019-02-15T04:18:31.082Z,64.27
2019-02-15T04:19:35.222Z,64.29
2019-02-15T04:20:39.303Z,64.35
2019-02-15T04:21:43.451Z,64.37
2019-02-15T04:22:47.820Z,64.34
2019-02-15T04:23:51.976Z,64.30
2019-02-15T04:24:55.843Z,64.26
2019-02-15T04:25:59.667Z,64.18
2019-02-15T04:27:03.954Z,64.09
2019-02-15T04:28:08.400Z,64.01
2019-02-15T04:29:12.563Z,63.81
2019-02-15T04:30:16.648Z,63.75
2019-02-15T04:31:20.486Z,63.75
2019-02-15T04:32:24.285Z,63.90
2019-02-15T04:33:28.091Z,63.96
2019-02-15T04:34:32.145Z,63.98
2019-02-15T04:35:36.547Z,63.96
2019-02-15T04:36:40.387Z,63.88
2019-02-15T04:37:44.445Z,63.86
2019-02-15T04:38:48.265Z,63.75
2019-02-15T04:39:52.398Z,63.77
2019-02-15T04:40:56.451Z,63.84
2019-02-15T04:42:00.283Z,63.84
2019-02-15T04:43:04.165Z,63.86
2019-02-15T04:44:08.253Z,63.90
2019-02-15T04:45:12.131Z,63.88
2019-02-15T04:46:15.939Z,63.83
2019-02-15T04:47:19.834Z,63.79
2019-02-15T04:48:23.920Z,63.81
2019-02-15T04:49:28.688Z,63.69
2019-02-15T04:50:32.743Z,63.58
2019-02-15T04:51:36.596Z,63.63
2019-02-15T04:52:40.407Z,63.67
2019-02-15T04:53:44.466Z,63.73
2019-02-15T04:54:48.381Z,63.76
2019-02-15T04:55:52.275Z,63.80
2019-02-15T04:56:56.174Z,63.80
2019-02-15T04:58:00.267Z,63.81
2019-02-15T04:59:04.579Z,63.81
2019-02-15T05:00:08.587Z,63.68
2019-02-15T05:01:12.401Z,63.58
2019-02-15T05:02:16.303Z,63.65
2019-02-15T05:03:20.471Z,63.77
2019-02-15T05:04:24.794Z,63.81
2019-02-15T05:05:28.601Z,63.83
2019-02-15T05:06:32.492Z,63.85
2019-02-15T05:07:36.311Z,63.81
2019-02-15T05:08:40.115Z,63.76
2019-02-15T05:09:44.224Z,63.69
2019-02-15T05:10:48.026Z,63.68
2019-02-15T05:11:52.930Z,63.64
2019-02-15T05:12:56.762Z,63.66
2019-02-15T05:14:00.652Z,63.53
2019-02-15T05:15:04.610Z,63.48
2019-02-15T05:16:08.817Z,63.61
2019-02-15T05:17:12.897Z,63.76
2019-02-15T05:18:16.827Z,63.69
2019-02-15T05:19:20.853Z,63.77
2019-02-15T05:20:24.666Z,63.91
2019-02-15T05:21:28.471Z,64.12
2019-02-15T05:22:32.298Z,64.12
2019-02-15T05:23:36.097Z,64.17
2019-02-15T05:24:40.231Z,64.30
2019-02-15T05:25:44.423Z,64.38
2019-02-15T05:26:48.405Z,64.45
2019-02-15T05:27:52.568Z,64.51
2019-02-15T05:28:56.693Z,64.53
2019-02-15T05:30:00.499Z,64.62
2019-02-15T05:31:04.310Z,64.69
2019-02-15T05:32:08.452Z,64.73
2019-02-15T05:33:12.594Z,64.74
2019-02-15T05:34:16.481Z,64.62
2019-02-15T05:35:20.282Z,64.61
2019-02-15T05:36:24.421Z,64.72
2019-02-15T05:37:29.120Z,64.69
2019-02-15T05:38:33.519Z,64.72
2019-02-15T05:39:37.404Z,64.72
2019-02-15T05:40:41.543Z,64.79
2019-02-15T05:41:46.278Z,64.81
2019-02-15T05:42:50.184Z,64.89
2019-02-15T05:43:54.022Z,64.94
2019-02-15T05:45:03.604Z,64.85
2019-02-15T05:46:04.787Z,64.85
2019-02-15T05:47:08.756Z,64.93
2019-02-15T05:48:13.399Z,65.09
2019-02-15T05:49:17.210Z,65.08
2019-02-15T05:50:21.337Z,65.08
2019-02-15T05:51:25.653Z,65.09
2019-02-15T05:52:30.199Z,65.17
2019-02-15T05:53:34.653Z,65.16
2019-02-15T05:54:38.812Z,65.20
2019-02-15T05:55:42.622Z,65.25
2019-02-15T05:56:46.535Z,65.29
2019-02-15T05:57:50.655Z,65.34
2019-02-15T05:58:54.555Z,65.27
2019-02-15T05:59:58.896Z,65.19
2019-02-15T06:01:03.149Z,65.12
2019-02-15T06:02:06.967Z,65.14
2019-02-15T06:03:11.070Z,65.09
2019-02-15T06:04:15.176Z,65.08
2019-02-15T06:05:18.990Z,65.11
2019-02-15T06:06:23.994Z,65.10
2019-02-15T06:07:27.888Z,65.05
2019-02-15T06:08:31.751Z,64.98
2019-02-15T06:09:35.582Z,64.86
2019-02-15T06:10:39.799Z,64.82
2019-02-15T06:11:43.606Z,64.84
2019-02-15T06:12:47.723Z,64.87
2019-02-15T06:13:51.870Z,64.88
2019-02-15T06:14:56.232Z,64.78
2019-02-15T06:16:00.413Z,64.67
2019-02-15T06:17:04.556Z,64.68
2019-02-15T06:18:08.790Z,64.57
2019-02-15T06:19:12.932Z,64.65
2019-02-15T06:20:16.739Z,64.73
2019-02-15T06:21:20.545Z,64.80
2019-02-15T06:22:24.425Z,64.78
2019-02-15T06:23:28.607Z,64.80
2019-02-15T06:24:32.410Z,64.81
2019-02-15T06:25:36.252Z,64.82
2019-02-15T06:26:40.085Z,64.75
2019-02-15T06:27:44.152Z,64.80
2019-02-15T06:28:48.219Z,64.81
2019-02-15T06:29:52.377Z,64.81
2019-02-15T06:30:56.959Z,64.81
2019-02-15T06:32:01.468Z,64.77
2019-02-15T06:33:05.429Z,64.72
2019-02-15T06:34:09.250Z,64.68
2019-02-15T06:35:13.073Z,64.66
2019-02-15T06:36:17.249Z,64.60
2019-02-15T06:37:21.069Z,64.55
2019-02-15T06:38:34.229Z,64.51
2019-02-15T06:39:30.786Z,64.47
2019-02-15T06:40:34.610Z,64.42
2019-02-15T06:41:38.508Z,64.33
2019-02-15T06:42:42.542Z,64.42
2019-02-15T06:43:46.384Z,64.49
2019-02-15T06:44:50.197Z,64.56
2019-02-15T06:45:54.008Z,64.55
2019-02-15T06:46:58.589Z,64.54
2019-02-15T06:48:02.694Z,64.55
2019-02-15T06:49:06.773Z,64.54
2019-02-15T06:50:10.654Z,64.50
2019-02-15T06:51:14.714Z,64.46
2019-02-15T06:52:18.766Z,64.46
2019-02-15T06:53:22.818Z,64.43
2019-02-15T06:54:26.637Z,64.43
2019-02-15T06:55:30.445Z,64.50
2019-02-15T06:56:34.357Z,64.49
2019-02-15T06:57:38.191Z,64.40
2019-02-15T06:58:55.732Z,64.33
2019-02-15T07:00:20.841Z,64.28
2019-02-15T07:01:31.643Z,64.21
2019-02-15T07:02:44.733Z,64.20
2019-02-15T07:04:16.695Z,64.15
2019-02-15T07:05:29.445Z,64.10
2019-02-15T07:06:33.576Z,64.03
2019-02-15T07:07:38.163Z,63.97
2019-02-15T07:08:41.972Z,63.96
2019-02-15T07:09:46.039Z,63.96
2019-02-15T07:10:50.236Z,63.97
2019-02-15T07:11:54.279Z,63.89
2019-02-15T07:12:58.340Z,63.85
2019-02-15T07:14:02.641Z,63.85
2019-02-15T07:15:07.468Z,63.83
2019-02-15T07:16:11.358Z,63.79
2019-02-15T07:17:15.165Z,63.77
2019-02-15T07:18:19.145Z,63.73
2019-02-15T07:19:23.294Z,63.71
2019-02-15T07:20:27.122Z,63.72
2019-02-15T07:21:30.941Z,63.72
2019-02-15T07:22:34.783Z,63.71
2019-02-15T07:23:38.916Z,63.70
2019-02-15T07:24:42.726Z,63.66
2019-02-15T07:25:46.571Z,63.62
2019-02-15T07:26:50.792Z,63.56
2019-02-15T07:27:54.616Z,63.48
2019-02-15T07:28:59.424Z,63.43
2019-02-15T07:30:03.920Z,63.43
2019-02-15T07:31:08.287Z,63.44
2019-02-15T07:32:12.092Z,63.46
2019-02-15T07:33:16.436Z,63.43
2019-02-15T07:34:20.430Z,63.43
2019-02-15T07:35:24.536Z,63.47
2019-02-15T07:36:28.371Z,63.41
2019-02-15T07:37:32.603Z,63.41
2019-02-15T07:38:36.745Z,63.23
2019-02-15T07:39:40.561Z,63.25
2019-02-15T07:40:44.645Z,63.30
2019-02-15T07:41:48.753Z,63.23
2019-02-15T07:42:52.603Z,63.24
2019-02-15T07:43:56.769Z,63.16
2019-02-15T07:45:01.272Z,63.20
2019-02-15T07:46:05.517Z,63.29
2019-02-15T07:47:09.357Z,63.15
2019-02-15T07:48:13.475Z,63.14
2019-02-15T07:49:26.436Z,63.07
2019-02-15T07:50:23.518Z,63.21
2019-02-15T07:51:27.345Z,63.31
2019-02-15T07:52:31.157Z,63.35
2019-02-15T07:53:35.625Z,63.37
2019-02-15T07:54:39.830Z,63.38
2019-02-15T07:55:44.369Z,63.42
2019-02-15T07:56:48.605Z,63.43
2019-02-15T07:57:55.260Z,63.42
2019-02-15T07:58:59.183Z,63.45
2019-02-15T08:00:03.138Z,63.43
2019-02-15T08:01:06.979Z,63.39
2019-02-15T08:02:11.150Z,63.37
2019-02-15T08:03:14.977Z,63.31
2019-02-15T08:04:18.793Z,63.29
2019-02-15T08:05:23.585Z,63.27
2019-02-15T08:06:28.246Z,63.29
2019-02-15T08:07:32.411Z,63.32
2019-02-15T08:08:36.859Z,63.33
2019-02-15T08:09:40.757Z,63.28
2019-02-15T08:10:44.710Z,63.27
2019-02-15T08:11:49.174Z,63.26
2019-02-15T08:12:53.015Z,63.17
2019-02-15T08:13:56.847Z,63.14
2019-02-15T08:15:00.757Z,63.05
2019-02-15T08:16:04.973Z,63.00
2019-02-15T08:17:08.894Z,63.03
2019-02-15T08:18:13.211Z,63.08
2019-02-15T08:19:17.349Z,63.10
2019-02-15T08:20:21.501Z,63.01
2019-02-15T08:21:26.143Z,63.08
2019-02-15T08:22:30.466Z,63.10
2019-02-15T08:23:34.285Z,63.13
2019-02-15T08:24:38.380Z,63.08
2019-02-15T08:25:42.523Z,63.01
2019-02-15T08:26:46.440Z,62.97
2019-02-15T08:27:50.323Z,63.04
2019-02-15T08:28:54.648Z,63.12
2019-02-15T08:29:59.192Z,63.12
2019-02-15T08:31:03.410Z,63.10
2019-02-15T08:32:07.410Z,63.15
2019-02-15T08:33:11.255Z,63.11
2019-02-15T08:34:15.089Z,63.14
2019-02-15T08:35:18.921Z,63.08
2019-02-15T08:36:23.022Z,62.93
2019-02-15T08:37:27.618Z,62.94
2019-02-15T08:38:31.990Z,62.81
2019-02-15T08:39:36.927Z,62.74
2019-02-15T08:40:40.764Z,62.71
2019-02-15T08:42:00.560Z,62.77
2019-02-15T08:42:51.069Z,62.77
2019-02-15T08:43:55.137Z,62.75
2019-02-15T08:44:59.067Z,62.65
2019-02-15T08:46:03.474Z,62.55
2019-02-15T08:47:07.766Z,62.43
2019-02-15T08:48:11.857Z,62.52
2019-02-15T08:49:15.772Z,62.58
2019-02-15T08:50:19.856Z,62.55
2019-02-15T08:51:24.282Z,62.45
2019-02-15T08:52:28.407Z,62.49
2019-02-15T08:53:33.098Z,62.50
2019-02-15T08:54:37.007Z,62.65
2019-02-15T08:55:40.976Z,62.43
2019-02-15T08:56:44.914Z,62.46
2019-02-15T08:57:48.851Z,62.21
2019-02-15T08:58:53.303Z,62.25
2019-02-15T08:59:57.203Z,62.25
2019-02-15T09:01:01.040Z,62.21
2019-02-15T09:02:09.736Z,62.19
2019-02-15T09:03:14.220Z,62.24
2019-02-15T09:04:19.172Z,62.16
2019-02-15T09:05:23.658Z,62.13
2019-02-15T09:06:27.969Z,62.03
2019-02-15T09:07:32.723Z,61.97
2019-02-15T09:08:36.611Z,61.95
2019-02-15T09:09:40.919Z,61.92
2019-02-15T09:10:44.818Z,61.43
2019-02-15T09:11:49.038Z,61.35
2019-02-15T09:12:52.943Z,61.34
2019-02-15T09:13:57.100Z,61.13
2019-02-15T09:15:01.015Z,60.79
2019-02-15T09:16:10.448Z,61.01
2019-02-15T09:17:11.192Z,61.16
2019-02-15T09:18:15.093Z,61.26
2019-02-15T09:19:19.557Z,61.27
2019-02-15T09:20:23.807Z,61.10
2019-02-15T09:21:27.631Z,61.01
2019-02-15T09:22:31.456Z,60.95
2019-02-15T09:23:35.764Z,60.63
2019-02-15T09:24:39.989Z,60.44
2019-02-15T09:25:44.239Z,60.57
2019-02-15T09:26:48.345Z,60.58
2019-02-15T09:28:14.211Z,60.51
2019-02-15T09:29:18.399Z,60.43
2019-02-15T09:30:22.604Z,60.38
2019-02-15T09:31:26.512Z,60.32
2019-02-15T09:32:31.024Z,60.26
2019-02-15T09:33:35.075Z,60.22
2019-02-15T09:34:39.285Z,60.16
2019-02-15T09:35:43.633Z,60.08
2019-02-15T09:36:48.052Z,60.01
2019-02-15T09:37:52.163Z,60.00
2019-02-15T09:38:56.367Z,59.90
2019-02-15T09:40:00.299Z,59.87
2019-02-15T09:41:04.272Z,59.70
2019-02-15T09:42:08.748Z,59.42
2019-02-15T09:43:12.652Z,59.21
2019-02-15T09:44:16.728Z,59.10
2019-02-15T09:45:20.556Z,58.93
2019-02-15T09:46:24.372Z,58.96
2019-02-15T09:47:28.384Z,59.14
2019-02-15T09:48:32.208Z,59.11
2019-02-15T09:49:36.116Z,59.13
2019-02-15T09:50:40.442Z,59.19
2019-02-15T09:51:44.345Z,59.11
2019-02-15T09:52:48.375Z,58.99
2019-02-15T09:53:52.276Z,58.98
2019-02-15T09:54:56.777Z,58.82
2019-02-15T09:56:00.607Z,58.90
2019-02-15T09:57:04.822Z,58.69
2019-02-15T09:58:09.212Z,58.26
2019-02-15T09:59:13.782Z,58.34
2019-02-15T10:00:18.192Z,58.37
2019-02-15T10:01:22.384Z,58.23
2019-02-15T10:02:26.232Z,57.86
2019-02-15T10:03:30.511Z,57.90
2019-02-15T10:04:35.101Z,57.91
2019-02-15T10:05:39.797Z,57.92
2019-02-15T10:06:43.926Z,57.73
2019-02-15T10:07:48.068Z,57.55
2019-02-15T10:08:51.883Z,57.44
2019-02-15T10:09:56.683Z,57.24
2019-02-15T10:11:00.953Z,57.22
2019-02-15T10:12:05.219Z,57.23
2019-02-15T10:13:09.622Z,57.21
2019-02-15T10:14:14.318Z,57.15
2019-02-15T10:15:18.501Z,57.11
2019-02-15T10:16:29.703Z,57.02
2019-02-15T10:17:29.095Z,57.04
2019-02-15T10:18:33.044Z,56.90
2019-02-15T10:19:38.002Z,56.29
2019-02-15T10:20:42.417Z,56.37
2019-02-15T10:21:47.350Z,55.90
2019-02-15T10:22:51.230Z,55.81
2019-02-15T10:23:55.360Z,55.93
2019-02-15T10:24:59.644Z,55.45
2019-02-15T10:26:03.578Z,55.39
2019-02-15T10:27:07.773Z,55.49
2019-02-15T10:28:12.499Z,55.31
2019-02-15T10:29:16.918Z,55.00
2019-02-15T10:30:20.867Z,54.96
2019-02-15T10:31:25.237Z,54.87
2019-02-15T10:32:29.139Z,54.69
2019-02-15T10:33:33.719Z,54.20
2019-02-15T10:34:38.078Z,54.35
2019-02-15T10:35:42.234Z,54.33
2019-02-15T10:36:46.644Z,54.39
2019-02-15T10:37:50.578Z,54.23
2019-02-15T10:38:54.509Z,53.67
2019-02-15T10:39:58.948Z,53.69
2019-02-15T10:41:03.292Z,53.62
2019-02-15T10:42:07.560Z,53.48
2019-02-15T10:43:11.842Z,53.42
2019-02-15T10:44:17.413Z,53.22
2019-02-15T10:45:21.358Z,53.02
2019-02-15T10:46:25.295Z,52.91
2019-02-15T10:47:29.619Z,52.83
2019-02-15T10:48:33.634Z,52.80
2019-02-15T10:49:37.940Z,52.66
2019-02-15T10:50:42.132Z,52.15
2019-02-15T10:51:46.223Z,51.92
2019-02-15T10:52:50.484Z,51.83
2019-02-15T10:53:54.825Z,51.75
2019-02-15T10:54:59.148Z,51.78
2019-02-15T10:56:03.285Z,51.68
2019-02-15T10:57:07.566Z,51.60
2019-02-15T10:58:12.098Z,51.62
2019-02-15T10:59:15.916Z,51.40
2019-02-15T11:00:20.394Z,51.30
2019-02-15T11:01:24.676Z,51.33
2019-02-15T11:02:28.507Z,51.23
2019-02-15T11:03:32.742Z,50.93
2019-02-15T11:04:37.017Z,50.85
2019-02-15T11:05:41.217Z,50.81
2019-02-15T11:06:45.135Z,50.84
2019-02-15T11:07:49.156Z,50.93
2019-02-15T11:08:53.531Z,50.91
2019-02-15T11:09:57.506Z,50.46
2019-02-15T11:11:01.901Z,49.48
2019-02-15T11:12:05.739Z,49.49
2019-02-15T11:13:09.939Z,49.51
2019-02-15T11:14:13.916Z,49.61
2019-02-15T11:15:18.354Z,49.57
2019-02-15T11:16:22.261Z,49.21
2019-02-15T11:17:26.449Z,48.55
2019-02-15T11:18:30.607Z,48.22
2019-02-15T11:19:34.553Z,48.23
2019-02-15T11:20:39.172Z,48.58
2019-02-15T11:21:43.664Z,48.75
2019-02-15T11:22:48.612Z,48.67
2019-02-15T11:23:53.182Z,48.81
2019-02-15T11:24:58.335Z,48.19
2019-02-15T11:26:04.459Z,47.60
2019-02-15T11:27:08.611Z,47.88
2019-02-15T11:28:12.485Z,48.04
2019-02-15T11:29:16.791Z,47.96
2019-02-15T11:30:20.749Z,47.61
2019-02-15T11:31:24.945Z,47.70
2019-02-15T11:32:28.848Z,47.67
2019-02-15T11:33:32.948Z,47.32
2019-02-15T11:34:36.769Z,47.19
2019-02-15T11:35:40.828Z,47.19
2019-02-15T11:36:44.747Z,47.06
2019-02-15T11:37:48.574Z,47.21
2019-02-15T11:38:52.717Z,47.01
2019-02-15T11:39:56.826Z,47.19
2019-02-15T11:41:00.731Z,46.56
2019-02-15T11:42:04.644Z,46.18
2019-02-15T11:43:08.725Z,45.87
2019-02-15T11:44:13.032Z,45.64
2019-02-15T11:45:17.440Z,45.83
2019-02-15T11:46:21.682Z,45.80
2019-02-15T11:47:26.259Z,45.34
2019-02-15T11:48:30.468Z,44.90
2019-02-15T11:49:34.879Z,44.71
2019-02-15T11:50:39.010Z,45.26
2019-02-15T11:51:42.917Z,45.46
2019-02-15T11:52:47.078Z,45.57
2019-02-15T11:53:51.031Z,45.48
2019-02-15T11:54:55.500Z,44.89
2019-02-15T11:55:59.658Z,44.91
2019-02-15T11:57:03.730Z,45.03
2019-02-15T11:58:07.910Z,44.87
2019-02-15T11:59:12.010Z,45.15
2019-02-15T12:00:20.375Z,44.80
2019-02-15T12:01:23.917Z,44.91
2019-02-15T12:02:27.779Z,44.72
2019-02-15T12:03:31.604Z,44.48
2019-02-15T12:04:35.952Z,44.45
2019-02-15T12:05:39.836Z,44.81
2019-02-15T12:06:43.751Z,44.91
2019-02-15T12:07:47.628Z,44.79
2019-02-15T12:08:51.445Z,44.81
2019-02-15T12:09:55.609Z,44.80
2019-02-15T12:10:59.550Z,44.66
2019-02-15T12:12:10.372Z,44.83
2019-02-15T12:13:09.375Z,44.62
2019-02-15T12:14:13.433Z,44.62
2019-02-15T12:15:17.538Z,44.58
2019-02-15T12:16:21.344Z,44.47
2019-02-15T12:17:25.168Z,44.51
2019-02-15T12:18:29.095Z,44.08
2019-02-15T12:19:33.109Z,44.04
2019-02-15T12:20:36.915Z,43.77
2019-02-15T12:21:40.724Z,43.74
2019-02-15T12:22:44.547Z,43.95
2019-02-15T12:23:48.359Z,43.90
2019-02-15T12:24:52.166Z,43.87
2019-02-15T12:25:56.383Z,43.71
2019-02-15T12:27:00.290Z,43.77
2019-02-15T12:28:04.205Z,43.67
2019-02-15T12:29:08.021Z,43.50
2019-02-15T12:30:12.297Z,43.44
2019-02-15T12:31:16.187Z,43.43
2019-02-15T12:32:20.709Z,43.37
2019-02-15T12:33:24.483Z,43.42
2019-02-15T12:34:28.652Z,43.26
2019-02-15T12:35:32.476Z,43.23
2019-02-15T12:36:36.653Z,43.22
2019-02-15T12:37:40.561Z,43.16
2019-02-15T12:38:44.861Z,42.73
2019-02-15T12:39:49.041Z,42.94
2019-02-15T12:40:53.172Z,42.99
2019-02-15T12:41:57.109Z,42.98
2019-02-15T12:43:00.959Z,42.96
2019-02-15T12:44:04.927Z,42.96
2019-02-15T12:45:09.684Z,43.00
2019-02-15T12:46:13.577Z,42.93
2019-02-15T12:47:17.790Z,42.89
2019-02-15T12:48:21.625Z,42.75
2019-02-15T12:49:25.475Z,42.56
2019-02-15T12:50:29.370Z,42.38
2019-02-15T12:51:33.215Z,42.16
2019-02-15T12:52:37.018Z,42.40
2019-02-15T12:53:40.925Z,42.52
2019-02-15T12:54:44.788Z,42.64
2019-02-15T12:55:48.624Z,42.63
2019-02-15T12:56:52.453Z,42.60
2019-02-15T12:57:58.360Z,42.61
2019-02-15T12:59:02.189Z,42.68
2019-02-15T13:00:07.950Z,42.64
2019-02-15T13:01:12.060Z,42.58
2019-02-15T13:02:17.167Z,42.62
2019-02-15T13:03:21.695Z,42.53
2019-02-15T13:04:25.797Z,42.51
2019-02-15T13:05:30.127Z,42.49
2019-02-15T13:06:34.129Z,42.63
2019-02-15T13:07:38.321Z,42.74
2019-02-15T13:08:42.656Z,42.78
2019-02-15T13:09:46.560Z,42.64
2019-02-15T13:10:51.260Z,42.84
2019-02-15T13:11:55.228Z,42.91
2019-02-15T13:12:59.076Z,42.95
2019-02-15T13:14:03.000Z,42.88
2019-02-15T13:15:07.712Z,42.95
2019-02-15T13:16:11.647Z,43.02
2019-02-15T13:17:24.167Z,43.17
2019-02-15T13:18:21.705Z,42.83
2019-02-15T13:19:26.218Z,42.47
2019-02-15T13:20:30.188Z,42.45
2019-02-15T13:21:34.089Z,42.37
2019-02-15T13:22:38.224Z,42.33
2019-02-15T13:23:42.072Z,42.24
2019-02-15T13:24:45.910Z,42.27
2019-02-15T13:25:50.227Z,42.40
2019-02-15T13:26:54.411Z,42.47
2019-02-15T13:27:58.714Z,42.60
2019-02-15T13:29:02.631Z,42.69
2019-02-15T13:30:07.571Z,42.79
2019-02-15T13:31:11.884Z,42.93
2019-02-15T13:32:15.750Z,42.82
2019-02-15T13:33:20.003Z,42.62
2019-02-15T13:34:23.893Z,42.59
2019-02-15T13:35:27.849Z,42.53
2019-02-15T13:36:31.979Z,42.41
2019-02-15T13:37:36.073Z,42.23
2019-02-15T13:38:39.931Z,42.09
2019-02-15T13:39:43.766Z,42.12
2019-02-15T13:40:47.606Z,42.07
2019-02-15T13:41:52.077Z,42.06
2019-02-15T13:42:55.910Z,41.92
2019-02-15T13:44:00.076Z,41.83
2019-02-15T13:45:04.201Z,41.88
2019-02-15T13:46:08.601Z,41.92
2019-02-15T13:47:12.437Z,42.00
2019-02-15T13:48:16.689Z,42.09
2019-02-15T13:49:20.618Z,42.09
2019-02-15T13:50:24.812Z,42.19
2019-02-15T13:51:28.628Z,42.18
2019-02-15T13:52:32.841Z,42.11
2019-02-15T13:53:37.676Z,42.05
2019-02-15T13:54:42.584Z,41.97
2019-02-15T13:55:46.619Z,41.98
2019-02-15T13:56:50.429Z,41.92
2019-02-15T13:57:54.495Z,41.96
2019-02-15T13:58:58.696Z,42.00